Tiempo atmosférico en la estación meteorológica de Cabrales, Asturias (458 m.)



Fecha
DESCASC
Temp. máxima en grados centígrados (hora)
DESCASC
Temp. mínima en grados centígrados (hora)
DESCASC
Temp. media en grados centígrados
DESCASC
Racha de viento máxima en m/sg (hora)
DESCASC
Velocidad máxima media en intervalos de 10 minutos(hora)
DESCASC
Precipitaciones diarias en mm
DESCASC
Precipitaciones de 00:00 a 06:00 en mm
DESCASC
Precipitaciones de 06:00 a 12:00 en mm
DESCASC
Precipitaciones de 12:00 a 18:00 en mm
DESCASC
Precipitaciones de 18:00 a 24:00 en mm
DESCASC
23-05-2018 23.6 (14:30) 11.6 (07:30) 17.6 8.06 (17:00) 4.72 (17:00) 1.8 0 0 1.8 0
22-05-2018 23.8 (14:20) 10.6 (07:10) 17.2 10 (18:00) 6.39 (17:50) 0 0 0 0 0
21-05-2018 21.7 (16:30) 9.6 (07:50) 15.7 7.5 (15:40) 5.28 (17:20) 0 0 0 0 0
20-05-2018 20.8 (14:20) 9.1 (00:00) 14.9 12.78 (16:20) 9.17 (16:20) 0 0 0 0 0
19-05-2018 22.4 (14:40) 10.3 (00:00) 16.3 10 (14:30) 5.28 (13:50) 0 0 0 0 0
18-05-2018 20.5 (14:30) 10.3 (00:00) 15.4 11.67 (15:50) 6.67 (15:00) 0 0 0 0 0
17-05-2018 21.5 (14:40) 9.5 (00:00) 15.5 11.39 (17:20) 6.94 (17:40) 0 0 0 0 0
16-05-2018 18.2 (15:50) 8.3 (00:00) 13.3 6.94 (14:30) 4.72 (14:00) 0 0 0 0 0
15-05-2018 17.7 (15:30) 6.2 (00:00) 12 7.78 (20:50) 6.11 (20:50) 0 0 0 0 0
14-05-2018 15.6 (17:50) 7.3 (00:00) 11.5 8.33 (17:00) 5.83 (13:20) 20.6 18.4 2.2 0 0
13-05-2018 12 (14:00) 5.5 (00:00) 8.8 14.17 (14:20) 10.28 (14:20) 2.2 0 0.2 0.6 1.4
12-05-2018 11.9 (17:00) 5.8 (00:00) 8.8 22.78 (17:20) 15.83 (17:20) 4.6 3.4 0 0.4 0.8
11-05-2018 20.4 (14:00) 6.5 (03:50) 13.4 10.28 (14:40) 7.22 (14:40) 0 0 0 0 0
10-05-2018 13.8 (16:50) 7.4 (00:00) 10.6 11.39 (17:20) 6.67 (17:20) 1 0.2 0.8 0 0
09-05-2018 16.2 (12:20) 8.7 (00:00) 12.5 8.61 (19:00) 6.39 (19:00) 1.2 0 0 0.4 0.8
08-05-2018 15.1 (18:40) 9.9 (00:00) 12.5 7.5 (14:30) 5.56 (22:00) 0 0 0 0 0
07-05-2018 25.6 (14:40) 12.3 (00:00) 19 5.83 (16:50) 3.89 (16:20) 0 0 0 0 0
06-05-2018 23.9 (13:50) 8.2 (00:00) 16 11.11 (15:30) 7.22 (15:30) 0 0 0 0 0
05-05-2018 19 (16:40) 5.5 (00:00) 12.3 12.5 (14:10) 8.89 (14:40) 0 0 0 0 0
04-05-2018 16.4 (15:00) 4.9 (00:00) 10.6 12.78 (15:50) 7.5 (15:50) 0 0 0 0 0
03-05-2018 13 (17:50) 6.4 (00:00) 9.7 10.56 (04:00) 7.5 (04:00) 5.6 4.4 0.6 0.6 0
02-05-2018 11.8 (18:20) 6.8 (00:00) 9.3 11.67 (22:40) 8.06 (22:40) 8 0 0.2 3.8 4
01-05-2018 14.5 (15:10) 3 (07:40) 8.8 8.89 (02:50) 5.83 (02:40) 0.6 0.6 0 0 0
30-04-2018 10.2 (16:20) 4.2 (00:00) 7.2 10 (19:50) 6.67 (16:50) 15.4 0.6 6 4 4.8
29-04-2018 13.4 (14:40) 4.6 (00:00) 9 12.5 (17:30) 7.5 (17:30) 15.2 0.2 0 6.4 8.6
28-04-2018 8.2 (12:20) 6.1 (00:00) 7.1 4.72 (23:30) 3.33 (23:20) 13.6 0 1.4 8 4.2

Gráficas

Temp. máximas Temp. mínimas Temp. medias Precipitaciones Rachas de viento máximas Velocidades máximas media en intervalos de 10 minutos

Datos horarios

Fecha y hora oficial Temperatura (ºC) Velocidad del viento (km/h) Dirección del viento Racha (km/h) Dirección de racha Precipitación (mm) Presión (hPa) Tendencia (hPa) Humedad (%)
2018-05-27 23:00:00 11.4 9 Oeste 13 Oeste 0.2 -- -- 100
2018-05-27 22:00:00 11.5 2 Sudeste 7 Oeste 0 -- -- 100
2018-05-27 21:00:00 11.5 7 Oeste 15 Oeste 0 -- -- 100
2018-05-27 20:00:00 11.7 11 Oeste 24 Oeste 0.2 -- -- 100
2018-05-27 19:00:00 12.6 7 Oeste 12 Sudoeste 0 -- -- 100
2018-05-27 18:00:00 12.1 12 Sudoeste 23 Sudoeste 0.2 -- -- 100
2018-05-27 17:00:00 12.5 14 Oeste 23 Oeste 1.8 -- -- 100
2018-05-27 16:00:00 12.7 7 Noroeste 30 Oeste 0.4 -- -- 100
2018-05-27 15:00:00 12.7 14 Oeste 24 Oeste 0.4 -- -- 99
2018-05-27 14:00:00 13 17 Oeste 22 Sudoeste 0 -- -- 97
2018-05-27 13:00:00 14.1 12 Oeste 20 Oeste 0 -- -- 92
2018-05-27 12:00:00 15 6 Sudoeste 12 Oeste 0 -- -- 92
2018-05-27 11:00:00 14.2 8 Sudoeste 14 Oeste 0 -- -- 97
2018-05-27 10:00:00 13.8 5 Oeste 9 Oeste 0 -- -- 100
2018-05-27 09:00:00 13.2 4 Oeste 8 Oeste 0 -- -- 100
2018-05-27 08:00:00 13.1 2 Sur 10 Este 0 -- -- 100
2018-05-27 07:00:00 12.7 2 Sudeste 5 Sudeste 0 -- -- 100
2018-05-27 06:00:00 12.7 0 Calma 3 Sudeste 0 -- -- 100
2018-05-27 05:00:00 12.6 0 Calma 3 Oeste 0 -- -- 100
2018-05-27 04:00:00 12.8 3 Noroeste 5 Noroeste 0 -- -- 98
2018-05-27 03:00:00 13 4 Noroeste 6 Noroeste 0 -- -- 97
2018-05-27 02:00:00 12.8 2 Norte 9 Norte 0 -- -- 98
2018-05-27 01:00:00 13 6 Norte 15 Norte 0 -- -- 97
2018-05-27 00:00:00 13.4 11 Noroeste 19 Oeste 0 -- -- 95
2018-05-26 23:00:00 14 3 Norte 9 Sudeste 0 -- -- 99
2018-05-26 22:00:00 14.2 6 Sudeste 14 Sur 0 -- -- 98
2018-05-26 21:00:00 15 9 Sudeste 13 Sudeste 0 -- -- 96
2018-05-26 20:00:00 15.8 3 Norte 12 Noroeste 0 -- -- 89
2018-05-26 19:00:00 15.2 10 Noroeste 24 Noroeste 0 -- -- 90
2018-05-26 18:00:00 16 12 Noroeste 21 Noroeste 0 -- -- 90
2018-05-26 17:00:00 17 14 Noroeste 19 Norte 0 -- -- 93
2018-05-26 16:00:00 15.1 8 Noroeste 12 Noroeste 0.4 -- -- 100
2018-05-26 15:00:00 14.2 0 Calma 14 Sudeste 3.6 -- -- 100
2018-05-26 14:00:00 14.3 5 Sudoeste 18 Oeste 0.6 -- -- 98
2018-05-26 13:00:00 14.9 10 Noroeste 21 Oeste 0 -- -- 98
2018-05-26 12:00:00 14.7 12 Noroeste 28 Oeste 0 -- -- 100
2018-05-26 11:00:00 14.9 8 Noroeste 20 Norte 0 -- -- 100
2018-05-26 10:00:00 14.5 13 Norte 18 Norte 0 -- -- 100
2018-05-26 09:00:00 14 0 Calma 6 Norte 0 -- -- 100
2018-05-26 08:00:00 13.4 3 Noroeste 6 Noroeste 0 -- -- 100
2018-05-26 07:00:00 13.2 0 Calma 5 Noroeste 0 -- -- 100
2018-05-26 06:00:00 13.2 0 Calma 6 Noroeste 0 -- -- 100
2018-05-26 05:00:00 13.2 5 Oeste 7 Oeste 0 -- -- 100
2018-05-26 04:00:00 13.3 2 Noroeste 4 Sudeste 1.4 -- -- 100
2018-05-26 03:00:00 13.3 0 Calma 4 Sudeste 0.4 -- -- 100
2018-05-26 02:00:00 13.3 3 Oeste 8 Oeste 0.8 -- -- 100
2018-05-26 01:00:00 13.4 3 Oeste 8 Sudoeste 0.2 -- -- 100
2018-05-26 00:00:00 13.4 2 Noroeste 5 Sudoeste 0.8 -- -- 100
2018-05-25 23:00:00 13.5 0 Calma 4 Oeste 0 -- -- 100
2018-05-25 22:00:00 13.6 3 Sudoeste 7 Este 0.2 -- -- 100
2018-05-25 21:00:00 13.8 5 Sudeste 6 Sudeste 1.4 -- -- 100
2018-05-25 20:00:00 14.1 6 Sudeste 7 Sudeste 2.4 -- -- 99
2018-05-25 19:00:00 14.7 3 Sudeste 10 Sudeste 0.4 -- -- 99
2018-05-25 18:00:00 14.7 5 Sudeste 20 Sudeste 0.6 -- -- 99
2018-05-25 17:00:00 15 3 Sur 14 Este 0 -- -- 96
2018-05-25 16:00:00 15.9 5 Sur 8 Sudeste 0 -- -- 95
2018-05-25 15:00:00 16 2 Nordeste 9 Este 0 -- -- 95
2018-05-25 14:00:00 16.3 8 Sudeste 17 Sudeste 0 -- -- 100
2018-05-25 13:00:00 15.1 0 Calma 13 Este 0.2 -- -- 100
2018-05-25 12:00:00 14.6 7 Sudeste 10 Este 0 -- -- 99
2018-05-25 11:00:00 15.1 5 Oeste 14 Noroeste 0 -- -- 100
2018-05-25 10:00:00 16.1 3 Norte 8 Norte 0 -- -- 100
2018-05-25 09:00:00 14.4 4 Sudeste 9 Sudeste 0 -- -- 100
2018-05-25 08:00:00 13.7 2 Noroeste 8 Sudoeste 0 -- -- 100
2018-05-25 07:00:00 13.6 7 Oeste 13 Noroeste 0.2 -- -- 100
2018-05-25 06:00:00 13.8 8 Oeste 20 Sudeste 0 -- -- 100
2018-05-25 05:00:00 13.9 10 Sudeste 26 Sudeste 0 -- -- 100
2018-05-25 04:00:00 13.7 3 Sudoeste 10 Oeste 1.4 -- -- 100
2018-05-25 03:00:00 13.9 3 Oeste 9 Noroeste 4 -- -- 100
2018-05-25 02:00:00 14.1 5 Oeste 9 Oeste 0.8 -- -- 100
2018-05-25 01:00:00 14.2 3 Noroeste 12 Sudeste 0 -- -- 100
2018-05-25 00:00:00 14.3 10 Sudeste 13 Sudeste 0 -- -- 100
2018-05-24 23:00:00 14.7 3 Sur 8 Noroeste 0 -- -- 100
2018-05-24 22:00:00 15 3 Sudoeste 8 Sur 0 -- -- 99
2018-05-24 21:00:00 15.4 2 Sudeste 20 Este 0.2 -- -- 99
2018-05-24 20:00:00 15.5 9 Este 23 Este 0 -- -- 97
2018-05-24 19:00:00 16.1 16 Sudeste 25 Este 1.6 -- -- 97
2018-05-24 18:00:00 16.2 19 Oeste 27 Oeste 0 -- -- 92
2018-05-24 17:00:00 18.9 18 Oeste 25 Oeste 0 -- -- 84
2018-05-24 16:00:00 22.6 12 Oeste 19 Noroeste 0 -- -- 75
2018-05-24 15:00:00 23.2 6 Sudeste 12 Sudeste 0 -- -- 70
2018-05-24 14:00:00 22.1 5 Este 12 Este 0 -- -- 72
2018-05-24 13:00:00 20.2 2 Noroeste 18 Este 0 -- -- 80
2018-05-24 12:00:00 18.9 8 Este 16 Este 0 -- -- 87
2018-05-24 11:00:00 17.9 6 Este 10 Este 0 -- -- 89
2018-05-24 10:00:00 15.6 2 Nordeste 6 Este 0 -- -- 98
2018-05-24 09:00:00 14.6 0 Calma 5 Sudoeste 0 -- -- 100
2018-05-24 08:00:00 13.8 2 Oeste 10 Oeste 0 -- -- 100
2018-05-24 07:00:00 13.9 3 Este 6 Este 0 -- -- 100
2018-05-24 06:00:00 14 3 Este 10 Este 0.2 -- -- 100
2018-05-24 05:00:00 14.3 2 Norte 5 Nordeste 0 -- -- 100
2018-05-24 04:00:00 14.3 0 Calma 5 Oeste 0 -- -- 100
2018-05-24 03:00:00 14.4 2 Sudoeste 11 Sudeste 0 -- -- 100
2018-05-24 02:00:00 14.6 4 Sur 9 Oeste 0 -- -- 100
2018-05-24 01:00:00 14.6 0 Calma 10 Sudeste 0 -- -- 100
2018-05-24 00:00:00 14.7 3 Sudeste 12 Sudeste 0 -- -- 100
2018-05-23 23:00:00 15.1 11 Sudeste 13 Sudeste 0 -- -- 99
2018-05-23 22:00:00 15.4 2 Noroeste 9 Sudeste 0 -- -- 98
2018-05-23 21:00:00 16 2 Sudeste 8 Noroeste 0 -- -- 96
2018-05-23 20:00:00 16.1 3 Sudoeste 17 Este 0 -- -- 94
2018-05-23 19:00:00 16.6 10 Sudeste 14 Sudeste 0 -- -- 94
2018-05-23 18:00:00 16.9 2 Sudeste 28 Sudeste 0 -- -- 95
2018-05-23 17:00:00 15.9 17 Sudeste 29 Este 1.8 -- -- 94
2018-05-23 16:00:00 18.1 15 Oeste 22 Oeste 0 -- -- 82
2018-05-23 15:00:00 22.3 7 Norte 26 Este 0 -- -- 66
2018-05-23 14:00:00 23.3 8 Sudeste 26 Este 0 -- -- 59
2018-05-23 13:00:00 22.1 9 Sudeste 18 Sudeste 0 -- -- 55
2018-05-23 12:00:00 20.8 9 Sudeste 23 Sudeste 0 -- -- 63
2018-05-23 11:00:00 18.5 3 Este 8 Este 0 -- -- 72
2018-05-23 10:00:00 15.2 3 Sudeste 6 Sur 0 -- -- 87
2018-05-23 09:00:00 13 2 Nordeste 7 Oeste 0 -- -- 93
2018-05-23 08:00:00 12.1 0 Calma 4 Sudeste 0 -- -- 94
2018-05-23 07:00:00 11.8 0 Calma 5 Oeste 0 -- -- 92
2018-05-23 06:00:00 12.2 0 Calma 5 Oeste 0 -- -- 90
2018-05-23 05:00:00 12.4 0 Calma 6 Sudoeste 0 -- -- 90
2018-05-23 04:00:00 12.6 3 Este 12 Sudoeste 0 -- -- 89
2018-05-23 03:00:00 12.9 6 Sudeste 11 Sudeste 0 -- -- 88
2018-05-23 02:00:00 13.7 5 Sudeste 9 Sudeste 0 -- -- 84
2018-05-23 01:00:00 13.9 8 Sudeste 10 Sudeste 0 -- -- 83
2018-05-23 00:00:00 14.3 4 Sudeste 11 Sudeste 0 -- -- 81
2018-05-22 23:00:00 15 7 Sudeste 13 Sudeste 0 -- -- 77
2018-05-22 22:00:00 15.7 9 Sudeste 25 Este 0 -- -- 73
2018-05-22 21:00:00 17.9 13 Este 35 Sudeste 0 -- -- 64
2018-05-22 20:00:00 19.4 16 Este 32 Este 0 -- -- 59
2018-05-22 19:00:00 20.2 22 Este 36 Este 0 -- -- 59
2018-05-22 18:00:00 21.3 21 Este 36 Este 0 -- -- 57
2018-05-22 17:00:00 22.8 17 Este 32 Este 0 -- -- 55
2018-05-22 16:00:00 23.5 9 Este 36 Sur 0 -- -- 57
2018-05-22 15:00:00 22.9 14 Sur 31 Sur 0 -- -- 62
2018-05-22 14:00:00 23.5 10 Este 21 Este 0 -- -- 54
2018-05-22 13:00:00 22.1 10 Sudeste 22 Este 0 -- -- 50
2018-05-22 12:00:00 21.1 9 Este 23 Sudeste 0 -- -- 54
2018-05-22 11:00:00 18.6 9 Sudeste 17 Este 0 -- -- 70
2018-05-22 10:00:00 15.3 3 Este 8 Nordeste 0 -- -- 88
2018-05-22 09:00:00 12.2 0 Calma 6 Este 0 -- -- 97
2018-05-22 08:00:00 11 0 Calma 10 Este 0 -- -- 98
2018-05-22 07:00:00 10.7 5 Sudeste 10 Sudeste 0 -- -- 98
2018-05-22 06:00:00 11.2 6 Este 9 Sudeste 0 -- -- 98
2018-05-22 05:00:00 11.8 0 Calma 3 Norte 0 -- -- 97
2018-05-22 04:00:00 12 0 Calma 3 Sudeste 0 -- -- 97
2018-05-22 03:00:00 12.4 2 Sudeste -- -- 0 -- -- 96
2018-05-22 02:00:00 12.6 0 Calma 3 Este 0 -- -- 94
2018-05-22 01:00:00 13.1 0 Calma 6 Oeste 0 -- -- 92
2018-05-22 00:00:00 13.4 3 Sur 8 Sudeste 0 -- -- 90
2018-05-21 23:00:00 14 2 Sur 14 Sudeste 0 -- -- 87
2018-05-21 22:00:00 14.9 10 Sudeste 19 Este 0 -- -- 82
2018-05-21 21:00:00 16.7 10 Sudeste 18 Sudeste 0 -- -- 75
2018-05-21 20:00:00 18.9 4 Sudoeste 15 Oeste 0 -- -- 75
2018-05-21 19:00:00 20.8 11 Sudoeste 23 Oeste 0 -- -- 70
2018-05-21 18:00:00 19.8 13 Oeste 26 Oeste 0 -- -- 73
2018-05-21 17:00:00 19.4 17 Oeste 23 Oeste 0 -- -- 73
2018-05-21 16:00:00 20.8 14 Oeste 27 Sudoeste 0 -- -- 70
2018-05-21 15:00:00 20.4 14 Noroeste 23 Noroeste 0 -- -- 73
2018-05-21 14:00:00 20.7 13 Oeste 22 Oeste 0 -- -- 71
2018-05-21 13:00:00 19.5 10 Noroeste 19 Oeste 0 -- -- 75
2018-05-21 12:00:00 19.7 4 Norte 12 Este 0 -- -- 68
2018-05-21 11:00:00 17.9 3 Nordeste 6 Nordeste 0 -- -- 79
2018-05-21 10:00:00 13.8 2 Oeste 5 Norte 0 -- -- 94
2018-05-21 09:00:00 11 2 Sudoeste 5 Oeste 0 -- -- 100
2018-05-21 08:00:00 9.6 4 Oeste 5 Oeste 0 -- -- 100
2018-05-21 07:00:00 9.8 0 Calma 3 Nordeste 0 -- -- 100
2018-05-21 06:00:00 9.9 0 Calma 4 Este 0 -- -- 100
2018-05-21 05:00:00 10.3 4 Sudeste 6 Sudeste 0 -- -- 100
2018-05-21 04:00:00 10.4 4 Oeste 7 Sudeste 0 -- -- 100
2018-05-21 03:00:00 10.6 5 Este 8 Este 0 -- -- 99
2018-05-21 02:00:00 10.7 2 Sur 15 Sudeste 0 -- -- 98
2018-05-21 01:00:00 11.5 10 Sudeste 17 Sudeste 0 -- -- 98
2018-05-21 00:00:00 11.9 11 Sudeste 17 Sudeste 0 -- -- 93
2018-05-20 23:00:00 12.5 11 Sudeste 21 Sudeste 0 -- -- 86
2018-05-20 22:00:00 13.4 11 Sudeste 28 Este 0 -- -- 72
2018-05-20 21:00:00 16 14 Este 33 Este 0 -- -- 64
2018-05-20 20:00:00 17.7 19 Este 33 Este 0 -- -- 61
2018-05-20 19:00:00 19 19 Este 36 Este 0 -- -- 54
2018-05-20 18:00:00 19.8 22 Este 41 Este 0 -- -- 52
2018-05-20 17:00:00 20 26 Este 46 Este 0 -- -- 48
2018-05-20 16:00:00 20.8 23 Este 40 Este 0 -- -- 45
2018-05-20 15:00:00 20.6 24 Este 42 Este 0 -- -- 48
2018-05-20 14:00:00 20.4 23 Este 39 Este 0 -- -- 40
2018-05-20 13:00:00 20.3 16 Este 26 Este 0 -- -- 47
2018-05-20 12:00:00 18.3 5 Sudeste 13 Sudeste 0 -- -- 62
2018-05-20 11:00:00 16.2 4 Sudeste 12 Este 0 -- -- 77
2018-05-20 10:00:00 12.2 2 Noroeste 8 Sudoeste 0 -- -- 100
2018-05-20 09:00:00 10 4 Oeste 6 Oeste 0 -- -- 100
2018-05-20 08:00:00 9.2 3 Nordeste 5 Nordeste 0 -- -- 100
2018-05-20 07:00:00 9.1 4 Este 6 Nordeste 0 -- -- 100
2018-05-20 06:00:00 9.3 3 Este 9 Sudeste 0 -- -- 100
2018-05-20 05:00:00 9.8 4 Este 10 Sudeste 0 -- -- 100
2018-05-20 04:00:00 10.2 0 Calma 4 Oeste 0 -- -- 100
2018-05-20 03:00:00 10.2 2 Sudoeste 9 Sudeste 0 -- -- 100
2018-05-20 02:00:00 10.4 4 Sudeste 9 Sudeste 0 -- -- 99
2018-05-20 01:00:00 10.9 8 Sudeste 12 Sudeste 0 -- -- 98
2018-05-20 00:00:00 11.5 6 Sudeste 13 Sudeste 0 -- -- 95
2018-05-19 23:00:00 12.4 8 Sudeste 12 Sudeste 0 -- -- 89
2018-05-19 22:00:00 13.7 9 Sudeste 15 Sudeste 0 -- -- 82
2018-05-19 21:00:00 14.8 8 Sudoeste 15 Oeste 0 -- -- 85
2018-05-19 20:00:00 17.9 12 Oeste 18 Oeste 0 -- -- 74
2018-05-19 19:00:00 19.3 12 Oeste 21 Oeste 0 -- -- 70
2018-05-19 18:00:00 20.5 13 Oeste 23 Oeste 0 -- -- 65
2018-05-19 17:00:00 20.9 9 Oeste 18 Oeste 0 -- -- 63
2018-05-19 16:00:00 19.7 9 Noroeste 27 Sudoeste 0 -- -- 66
2018-05-19 15:00:00 22.3 16 Este 36 Nordeste 0 -- -- 61
2018-05-19 14:00:00 21.4 18 Este 27 Este 0 -- -- 62
2018-05-19 13:00:00 21.3 11 Este 28 Este 0 -- -- 65
2018-05-19 12:00:00 19.2 4 Sudeste 10 Este 0 -- -- 72
2018-05-19 11:00:00 15.3 3 Oeste 10 Sudoeste 0 -- -- 88
2018-05-19 10:00:00 12.2 5 Sudoeste 8 Oeste 0 -- -- 100
2018-05-19 09:00:00 11.1 2 Norte 6 Sudoeste 0 -- -- 100
2018-05-19 08:00:00 10.5 4 Oeste 8 Sudoeste 0 -- -- 100
2018-05-19 07:00:00 10.5 9 Sudoeste 12 Sudoeste 0 -- -- 100
2018-05-19 06:00:00 10.9 3 Sudoeste 7 Sudeste 0 -- -- 100
2018-05-19 05:00:00 11.3 2 Sudoeste 7 Sudeste 0 -- -- 100
2018-05-19 04:00:00 11.6 0 Calma 8 Sudeste 0 -- -- 100
2018-05-19 03:00:00 11.9 3 Sudeste 10 Sudeste 0 -- -- 100
2018-05-19 02:00:00 12 5 Sudeste 9 Sudeste 0 -- -- 100
2018-05-19 01:00:00 11.8 0 Calma 12 Sudeste 0 -- -- 100
2018-05-19 00:00:00 12.1 7 Sudeste 15 Sudeste 0 -- -- 98
2018-05-18 23:00:00 12.7 9 Sudeste 14 Sudeste 0 -- -- 96
2018-05-18 22:00:00 13.6 9 Sudeste 21 Sudeste 0 -- -- 91
2018-05-18 21:00:00 15 14 Este 30 Sudeste 0 -- -- 85
2018-05-18 20:00:00 17.1 15 Este 26 Este 0 -- -- 78
2018-05-18 19:00:00 18 5 Sudeste 18 Oeste 0 -- -- 78
2018-05-18 18:00:00 17.7 15 Oeste 25 Oeste 0 -- -- 80
2018-05-18 17:00:00 19.2 6 Sur 31 Nordeste 0 -- -- 74
2018-05-18 16:00:00 19.8 20 Este 42 Este 0 -- -- 66
2018-05-18 15:00:00 19.6 24 Este 38 Este 0 -- -- 66
2018-05-18 14:00:00 17.6 8 Oeste 15 Oeste 0 -- -- 81
2018-05-18 13:00:00 18.7 6 Sudoeste 17 Sudeste 0 -- -- 74
2018-05-18 12:00:00 17.3 5 Nordeste 11 Noroeste 0 -- -- 75
2018-05-18 11:00:00 14 5 Oeste 9 Oeste 0 -- -- 86
2018-05-18 10:00:00 11.9 3 Oeste 6 Oeste 0 -- -- 100
2018-05-18 09:00:00 10.8 0 Calma 10 Sudeste 0 -- -- 100
2018-05-18 08:00:00 10.6 3 Sudeste 6 Sudeste 0 -- -- 100
2018-05-18 07:00:00 10.3 0 Calma 3 Oeste 0 -- -- 100
2018-05-18 06:00:00 10.4 0 Calma 4 Este 0 -- -- 100
2018-05-18 05:00:00 10.4 4 Este 8 Sudeste 0 -- -- 100
2018-05-18 04:00:00 10.5 3 Este 10 Sudeste 0 -- -- 100
2018-05-18 03:00:00 10.5 5 Este 10 Sudeste 0 -- -- 100
2018-05-18 02:00:00 10.5 0 Calma 5 Sudoeste 0 -- -- 100
2018-05-18 01:00:00 10.3 4 Oeste 13 Oeste 0 -- -- 100
2018-05-18 00:00:00 10.6 11 Oeste 13 Oeste 0 -- -- 98
2018-05-17 23:00:00 11.6 7 Sudeste 12 Sudeste 0 -- -- 94
2018-05-17 22:00:00 12.6 8 Sudeste 18 Sudeste 0 -- -- 89
2018-05-17 21:00:00 14.3 13 Sudeste 23 Sudeste 0 -- -- 81
2018-05-17 20:00:00 15.7 8 Este 33 Este 0 -- -- 73
2018-05-17 19:00:00 16.3 23 Este 39 Este 0 -- -- 69
2018-05-17 18:00:00 18.5 22 Este 41 Este 0 -- -- 61
2018-05-17 17:00:00 19.5 17 Este 38 Este 0 -- -- 60
2018-05-17 16:00:00 20.5 17 Este 30 Sudeste 0 -- -- 60
2018-05-17 15:00:00 21 9 Sudeste 23 Sur 0 -- -- 61
2018-05-17 14:00:00 20.2 8 Este 19 Este 0 -- -- 69
2018-05-17 13:00:00 19.1 3 Noroeste 15 Noroeste 0 -- -- 68
2018-05-17 12:00:00 18 4 Noroeste 15 Sudoeste 0 -- -- 71
2018-05-17 11:00:00 14.6 5 Noroeste 11 Noroeste 0 -- -- 82
2018-05-17 10:00:00 12.9 0 Calma 8 Noroeste 0 -- -- 89
2018-05-17 09:00:00 10.8 2 Este 9 Este 0 -- -- 99
2018-05-17 08:00:00 10 0 Calma 5 Sur 0 -- -- 99
2018-05-17 07:00:00 9.6 0 Calma 13 Oeste 0 -- -- 99
2018-05-17 06:00:00 9.6 7 Oeste 10 Oeste 0 -- -- 99
2018-05-17 05:00:00 9.6 3 Oeste 6 Sudeste 0 -- -- 99
2018-05-17 04:00:00 9.9 0 Calma 6 Este 0 -- -- 98
2018-05-17 03:00:00 9.9 6 Sudeste 10 Sudeste 0 -- -- 97
2018-05-17 02:00:00 10.3 5 Sudeste 11 Este 0 -- -- 96
2018-05-17 01:00:00 10.6 6 Sudeste 11 Este 0 -- -- 96
2018-05-17 00:00:00 10.9 7 Sudeste 13 Sudeste 0 -- -- 96
2018-05-16 23:00:00 11 5 Sur 17 Este 0 -- -- 96
2018-05-16 22:00:00 11.4 13 Este 22 Este 0 -- -- 94
2018-05-16 21:00:00 12.2 8 Sudeste 17 Este 0 -- -- 90
2018-05-16 20:00:00 13.4 6 Este 13 Este 0 -- -- 87
2018-05-16 19:00:00 15.8 4 Noroeste 18 Oeste 0 -- -- 80
2018-05-16 18:00:00 16.1 6 Oeste 18 Sudoeste 0 -- -- 77
2018-05-16 17:00:00 17.9 3 Norte 23 Oeste 0 -- -- 70
2018-05-16 16:00:00 18.1 12 Noroeste 22 Oeste 0 -- -- 71
2018-05-16 15:00:00 17.4 10 Oeste 25 Oeste 0 -- -- 67
2018-05-16 14:00:00 16.8 17 Oeste 24 Oeste 0 -- -- 70
2018-05-16 13:00:00 15.6 9 Oeste 18 Oeste 0 -- -- 74
2018-05-16 12:00:00 14.2 2 Oeste 9 Sudoeste 0 -- -- 78
2018-05-16 11:00:00 12.5 5 Sudoeste 10 Sudoeste 0 -- -- 84
2018-05-16 10:00:00 11.6 4 Noroeste 7 Oeste 0 -- -- 92
2018-05-16 09:00:00 10.2 2 Noroeste 5 Noroeste 0 -- -- 96
2018-05-16 08:00:00 9.4 3 Oeste 5 Oeste 0 -- -- 96
2018-05-16 07:00:00 9 3 Oeste 5 Oeste 0 -- -- 95
2018-05-16 06:00:00 9.2 4 Oeste 6 Oeste 0 -- -- 94
2018-05-16 05:00:00 9.2 2 Noroeste 4 Noroeste 0 -- -- 94
2018-05-16 04:00:00 8.5 0 Calma 5 Oeste 0 -- -- 95
2018-05-16 03:00:00 8.5 5 Sudoeste 7 Sudoeste 0 -- -- 97
2018-05-16 02:00:00 8.7 2 Noroeste 5 Noroeste 0 -- -- 95
2018-05-16 01:00:00 9 4 Norte 8 Noroeste 0 -- -- 94
2018-05-16 00:00:00 9.6 6 Noroeste 15 Oeste 0 -- -- 92
2018-05-15 23:00:00 9.8 9 Oeste 20 Oeste 0 -- -- 91
2018-05-15 22:00:00 9.9 14 Oeste 23 Oeste 0 -- -- 90
2018-05-15 21:00:00 11.8 19 Oeste 28 Oeste 0 -- -- 78
2018-05-15 20:00:00 14 17 Oeste 25 Oeste 0 -- -- 70
2018-05-15 19:00:00 15.6 18 Oeste 27 Oeste 0 -- -- 57
2018-05-15 18:00:00 16.6 19 Oeste 25 Oeste 0 -- -- 48
2018-05-15 17:00:00 17.2 17 Oeste 26 Noroeste 0 -- -- 50
2018-05-15 16:00:00 17.3 14 Noroeste 26 Norte 0 -- -- 59
2018-05-15 15:00:00 16.8 17 Noroeste 27 Noroeste 0 -- -- 60
2018-05-15 14:00:00 16.7 13 Noroeste 23 Norte 0 -- -- 55
2018-05-15 13:00:00 15.8 8 Noroeste 19 Norte 0 -- -- 61
2018-05-15 12:00:00 13.9 12 Noroeste 21 Noroeste 0 -- -- 64
2018-05-15 11:00:00 12.3 4 Norte 11 Noroeste 0 -- -- 72
2018-05-15 10:00:00 9.7 2 Noroeste 5 Norte 0 -- -- 93
2018-05-15 09:00:00 6.9 2 Oeste 6 Oeste 0 -- -- 95
2018-05-15 08:00:00 6.3 3 Oeste 5 Oeste 0 -- -- 97
2018-05-15 07:00:00 6.4 3 Noroeste 6 Sudoeste 0 -- -- 98
2018-05-15 06:00:00 6.9 6 Sudoeste 13 Oeste 0 -- -- 100
2018-05-15 05:00:00 6.5 6 Oeste 11 Noroeste 0 -- -- 100
2018-05-15 04:00:00 6.4 5 Oeste 10 Noroeste 0 -- -- 100
2018-05-15 03:00:00 6.5 7 Noroeste 15 Oeste 0 -- -- 96
2018-05-15 02:00:00 7.3 6 Oeste 9 Oeste 0 -- -- 98
2018-05-15 01:00:00 7.8 3 Oeste 11 Oeste 0 -- -- 97
2018-05-15 00:00:00 8.3 8 Oeste 15 Oeste 0 -- -- 96
2018-05-14 23:00:00 8.3 7 Oeste 21 Oeste 0 -- -- 95
2018-05-14 22:00:00 9.2 14 Oeste 25 Oeste 0 -- -- 90
2018-05-14 21:00:00 11.9 16 Oeste 22 Oeste 0 -- -- 81
2018-05-14 20:00:00 14 13 Noroeste 24 Oeste 0 -- -- 76
2018-05-14 19:00:00 14.2 16 Noroeste 28 Oeste 0 -- -- 74
2018-05-14 18:00:00 15.3 14 Oeste 27 Noroeste 0 -- -- 70
2018-05-14 17:00:00 14.9 15 Noroeste 30 Noroeste 0 -- -- 73
2018-05-14 16:00:00 14.4 15 Noroeste 27 Oeste 0 -- -- 73
2018-05-14 15:00:00 15.4 16 Noroeste 27 Noroeste 0 -- -- 68
2018-05-14 14:00:00 14.1 15 Noroeste 28 Noroeste 0 -- -- 77
2018-05-14 13:00:00 13 14 Noroeste 26 Oeste 0 -- -- 85
2018-05-14 12:00:00 11.5 18 Oeste 25 Oeste 0 -- -- 100
2018-05-14 11:00:00 10.4 8 Noroeste 21 Norte 0.8 -- -- 100
2018-05-14 10:00:00 9.3 13 Oeste 21 Noroeste 0.4 -- -- 100
2018-05-14 09:00:00 8.9 2 Nordeste 9 Noroeste 0.2 -- -- 100
2018-05-14 08:00:00 7.9 3 Oeste 6 Este 0.2 -- -- 100
2018-05-14 07:00:00 7.5 3 Oeste 5 Nordeste 0.6 -- -- 100
2018-05-14 06:00:00 7.3 0 Calma 6 Sur 4.2 -- -- 100
2018-05-14 05:00:00 7.3 4 Norte 16 Sur 7.4 -- -- 100
2018-05-14 04:00:00 7.3 4 Sudeste 9 Este 2.4 -- -- 100
2018-05-14 03:00:00 7.5 0 Calma 5 Sudoeste 1.8 -- -- 100
2018-05-14 02:00:00 7.5 0 Calma 5 Sur 1.4 -- -- 99
2018-05-14 01:00:00 7.3 4 Este 9 Noroeste 1.2 -- -- 99
2018-05-11 20:00:00 12.6 6 Oeste 15 Sudoeste 0 -- -- 80
2018-05-11 19:00:00 13.2 7 Sudoeste 11 Oeste 0 -- -- 76
2018-05-11 18:00:00 14.4 3 Sudoeste 14 Sudeste 0 -- -- 75
2018-05-11 17:00:00 14.8 10 Sudeste 18 Sudeste 0 -- -- 82
2018-05-11 16:00:00 14.5 4 Sur 26 Noroeste 0 -- -- 86
2018-05-11 15:00:00 13.4 23 Oeste 37 Sudoeste 0 -- -- 86
2018-05-11 14:00:00 20.4 5 Sudeste 23 Sudeste 0 -- -- 71
2018-05-11 13:00:00 19.2 8 Este 21 Este 0 -- -- 62
2018-05-11 12:00:00 15.9 5 Oeste 14 Oeste 0 -- -- 67
2018-05-11 11:00:00 14.1 12 Noroeste 18 Oeste 0 -- -- 70
2018-05-11 10:00:00 14.2 15 Noroeste 30 Noroeste 0 -- -- 68
2018-05-11 09:00:00 12.6 5 Sudoeste 17 Sudeste 0 -- -- 66
2018-05-11 08:00:00 11.5 5 Este 11 Sudeste 0 -- -- 78
2018-05-11 07:00:00 9.7 4 Sudoeste 13 Sudoeste 0 -- -- 78
2018-05-11 06:00:00 8.7 6 Sudeste 14 Este 0 -- -- 85
2018-05-11 05:00:00 7.7 4 Este 11 Sudeste 0 -- -- 96
2018-05-11 04:00:00 6.6 7 Este 11 Este 0 -- -- 98
2018-05-11 03:00:00 6.7 4 Sudeste 6 Este 0 -- -- 96
2018-05-11 02:00:00 7.2 2 Norte 8 Oeste 0 -- -- 96
2018-05-11 01:00:00 7.6 0 Calma 5 Oeste 0 -- -- 94
2018-05-11 00:00:00 7.4 4 Este 16 Este 0 -- -- 94
2018-05-10 23:00:00 8 12 Sudeste 15 Este 0 -- -- 91
2018-05-10 22:00:00 8.9 5 Sudeste 21 Sudeste 0 -- -- 89
2018-05-10 21:00:00 9.8 7 Sudeste 36 Este 0 -- -- 84
2018-05-10 20:00:00 11 21 Este 35 Sudeste 0 -- -- 79
2018-05-10 19:00:00 11.8 19 Este 37 Este 0 -- -- 79
2018-05-10 18:00:00 13.2 18 Este 41 Este 0 -- -- 78
2018-05-10 17:00:00 13.4 19 Este 31 Este 0 -- -- 78
2018-05-10 16:00:00 13.4 4 Oeste 16 Este 0 -- -- 80
2018-05-10 15:00:00 13 5 Sur 15 Este 0 -- -- 83
2018-05-10 14:00:00 11.8 7 Sudeste 14 Sudeste 0 -- -- 93
2018-05-10 13:00:00 11.3 5 Noroeste 14 Oeste 0 -- -- 92
2018-05-10 12:00:00 10 6 Sudoeste 17 Sudoeste 0.2 -- -- 100
2018-05-10 11:00:00 8.6 12 Oeste 22 Oeste 0 -- -- 100
2018-05-10 10:00:00 8.1 16 Oeste 23 Oeste 0.2 -- -- 100
2018-05-10 09:00:00 8.2 19 Oeste 27 Oeste 0 -- -- 100
2018-05-10 08:00:00 8.4 13 Oeste 21 Oeste 0.2 -- -- 100
2018-05-10 07:00:00 8.5 12 Noroeste 22 Noroeste 0.2 -- -- 100
2018-05-10 06:00:00 8.6 14 Noroeste 25 Noroeste 0 -- -- 100
2018-05-10 05:00:00 8.8 6 Oeste 10 Sudoeste 0 -- -- 98
2018-05-10 04:00:00 8.7 3 Noroeste 14 Noroeste 0 -- -- 100
2018-05-10 03:00:00 8.5 9 Noroeste 15 Noroeste 0 -- -- 100
2018-05-10 02:00:00 8.3 3 Noroeste 19 Norte 0 -- -- 100
2018-05-10 01:00:00 8.6 12 Noroeste 33 Noroeste 0.2 -- -- 100
2018-05-10 00:00:00 8.8 17 Noroeste 29 Oeste 0 -- -- 100
2018-05-09 23:00:00 8.9 15 Oeste 22 Noroeste 0 -- -- 100
2018-05-09 22:00:00 9.5 6 Noroeste 26 Noroeste 0.2 -- -- 100
2018-05-09 21:00:00 9.7 12 Noroeste 25 Noroeste 0.4 -- -- 100
2018-05-09 20:00:00 9.9 11 Noroeste 30 Noroeste 0.2 -- -- 100
2018-05-09 19:00:00 10.3 23 Noroeste 31 Noroeste 0 -- -- 100
2018-05-09 18:00:00 10.8 17 Oeste 26 Oeste 0.2 -- -- 100
2018-05-09 17:00:00 11.5 10 Oeste 22 Oeste 0.2 -- -- 99
2018-05-09 16:00:00 12.7 16 Oeste 24 Oeste 0 -- -- 94
2018-05-09 15:00:00 13.5 18 Oeste 28 Oeste 0 -- -- 91
2018-05-09 14:00:00 14.6 17 Oeste 24 Oeste 0 -- -- 86
2018-05-09 13:00:00 16.1 12 Noroeste 20 Oeste 0 -- -- 80
2018-05-09 12:00:00 15.9 7 Norte 16 Norte 0 -- -- 79
2018-05-09 11:00:00 14.3 6 Oeste 12 Oeste 0 -- -- 84
2018-05-09 10:00:00 12.8 3 Norte 8 Norte 0 -- -- 100
2018-05-09 09:00:00 11.2 0 Calma 5 Sudeste 0 -- -- 100
2018-05-09 08:00:00 9.7 4 Oeste 4 Oeste 0 -- -- 100
2018-05-09 07:00:00 9.5 0 Calma 3 Sur 0 -- -- 100
2018-05-09 06:00:00 9.3 4 Sur 9 Oeste 0 -- -- 100
2018-05-09 05:00:00 9.7 6 Oeste 8 Oeste 0 -- -- 100
2018-05-09 04:00:00 9.9 0 Calma 9 Sudoeste 0 -- -- 100
2018-05-09 03:00:00 10.1 3 Oeste 5 Oeste 0 -- -- 100
2018-05-09 02:00:00 10.2 2 Noroeste 5 Sudoeste 0 -- -- 100
2018-05-09 01:00:00 10 5 Oeste 8 Sudoeste 0 -- -- 100
2018-05-09 00:00:00 9.9 8 Sudoeste 15 Oeste 0 -- -- 100
2018-05-08 23:00:00 9.9 9 Oeste 26 Oeste 0 -- -- 100
2018-05-08 22:00:00 10.2 20 Oeste 27 Oeste 0 -- -- 100
2018-05-08 21:00:00 11.2 9 Sudoeste 24 Oeste 0 -- -- 98
2018-05-08 20:00:00 14.1 8 Oeste 21 Noroeste 0 -- -- 90
2018-05-08 19:00:00 14.8 10 Noroeste 18 Oeste 0 -- -- 89
2018-05-08 18:00:00 12.5 15 Oeste 21 Oeste 0 -- -- 99
2018-05-08 17:00:00 12.8 2 Nordeste 25 Noroeste 0 -- -- 100
2018-05-08 16:00:00 11.1 17 Noroeste 27 Noroeste 0 -- -- 100
2018-05-08 15:00:00 12.8 13 Noroeste 27 Norte 0 -- -- 96
2018-05-08 14:00:00 14.8 7 Noroeste 14 Noroeste 0 -- -- 100
2018-05-08 13:00:00 12.8 9 Norte 16 Norte 0 -- -- 100
2018-05-08 12:00:00 12.4 9 Noroeste 14 Norte 0 -- -- 100
2018-05-08 11:00:00 11.9 9 Noroeste 14 Noroeste 0 -- -- 100
2018-05-08 10:00:00 11.7 9 Noroeste 17 Noroeste 0 -- -- 100
2018-05-08 09:00:00 11.6 5 Oeste 9 Oeste 0 -- -- 100
2018-05-08 08:00:00 11.2 4 Oeste 8 Oeste 0 -- -- 100
2018-05-08 07:00:00 11 7 Oeste 8 Oeste 0 -- -- 100
2018-05-08 06:00:00 11.1 5 Noroeste 13 Oeste 0 -- -- 100
2018-05-08 05:00:00 11.5 9 Oeste 13 Oeste 0 -- -- 100
2018-05-08 04:00:00 11.6 6 Oeste 10 Oeste 0 -- -- 99
2018-05-08 03:00:00 11.8 7 Oeste 13 Oeste 0 -- -- 98
2018-05-08 02:00:00 12.7 5 Oeste 9 Oeste 0 -- -- 97
2018-05-08 01:00:00 13.2 3 Oeste 4 Oeste 0 -- -- 95
2018-05-08 00:00:00 13.7 0 Calma 6 Oeste 0 -- -- 93
2018-05-07 23:00:00 14.1 3 Sur 9 Sudeste 0 -- -- 90
2018-05-07 22:00:00 14.7 5 Sudoeste 16 Sudoeste 0 -- -- 88
2018-05-07 21:00:00 16.5 14 Oeste 19 Oeste 0 -- -- 83
2018-05-07 20:00:00 19.2 13 Oeste 17 Oeste 0 -- -- 75
2018-05-07 19:00:00 21.3 11 Oeste 18 Noroeste 0 -- -- 70
2018-05-07 18:00:00 22.5 12 Oeste 20 Oeste 0 -- -- 67
2018-05-07 17:00:00 23.3 13 Oeste 21 Oeste 0 -- -- 64
2018-05-07 16:00:00 24.3 12 Oeste 20 Noroeste 0 -- -- 61
2018-05-07 15:00:00 25.6 6 Sudoeste 15 Sudeste 0 -- -- 58
2018-05-07 14:00:00 24.8 4 Este 14 Este 0 -- -- 55
2018-05-07 13:00:00 24 5 Sudeste 12 Sudeste 0 -- -- 64
2018-05-07 12:00:00 21.6 4 Sudeste 12 Sudeste 0 -- -- 68
2018-05-07 11:00:00 18.6 2 Noroeste 8 Este 0 -- -- 76
2018-05-07 10:00:00 16.1 2 Sudoeste 4 Este 0 -- -- 86
2018-05-07 09:00:00 13.5 0 Calma 3 Este 0 -- -- 92
2018-05-07 08:00:00 12.4 0 Calma 5 Sudeste 0 -- -- 93
2018-05-07 07:00:00 12.4 0 Calma 4 Oeste 0 -- -- 91
2018-05-07 06:00:00 12.5 0 Calma 4 Sur 0 -- -- 92
2018-05-07 05:00:00 13.1 0 Calma 6 Noroeste 0 -- -- 88
2018-05-07 04:00:00 13.1 4 Sudoeste 6 Oeste 0 -- -- 88
2018-05-07 03:00:00 13.8 2 Oeste 5 Oeste 0 -- -- 85
2018-05-07 02:00:00 14.4 0 Calma 3 Este 0 -- -- 81
2018-05-07 01:00:00 14.6 3 Oeste 4 Oeste 0 -- -- 80
2018-05-07 00:00:00 14.8 0 Calma 8 Sudeste 0 -- -- 79
2018-05-06 23:00:00 15.2 6 Sudeste 10 Sudeste 0 -- -- 77
2018-05-06 22:00:00 16.3 9 Sudeste 22 Sudeste 0 -- -- 73
2018-05-06 21:00:00 18 12 Sudeste 27 Este 0 -- -- 68
2018-05-06 20:00:00 20 14 Este 28 Este 0 -- -- 63
2018-05-06 19:00:00 21.4 15 Este 30 Este 0 -- -- 58
2018-05-06 18:00:00 22.1 19 Este 35 Este 0 -- -- 56
2018-05-06 17:00:00 22.7 17 Este 36 Este 0 -- -- 56
2018-05-06 16:00:00 22.8 22 Este 40 Este 0 -- -- 57
2018-05-06 15:00:00 23.2 18 Este 35 Nordeste 0 -- -- 55
2018-05-06 14:00:00 23.9 16 Este 31 Este 0 -- -- 55
2018-05-06 13:00:00 22.1 21 Este 34 Este 0 -- -- 56
2018-05-06 12:00:00 20.2 12 Sudeste 26 Sudeste 0 -- -- 66
2018-05-06 11:00:00 17.8 7 Sudeste 13 Sudeste 0 -- -- 73
2018-05-06 10:00:00 13.1 3 Sudoeste 5 Este 0 -- -- 85
2018-05-06 09:00:00 10.8 2 Sudeste 5 Este 0 -- -- 91
2018-05-06 08:00:00 9.5 0 Calma 6 Nordeste 0 -- -- 93
2018-05-06 07:00:00 9 6 Este 10 Este 0 -- -- 94
2018-05-06 06:00:00 8.6 8 Sudeste 13 Sudeste 0 -- -- 96
2018-05-06 05:00:00 8.3 5 Este 8 Este 0 -- -- 96
2018-05-06 04:00:00 8.9 0 Calma 4 Oeste 0 -- -- 95
2018-05-06 03:00:00 8.9 3 Oeste 6 Oeste 0 -- -- 96
2018-05-06 02:00:00 9 0 Calma 5 Sudeste 0 -- -- 95
2018-05-06 01:00:00 9.2 4 Sudeste 15 Sudeste 0 -- -- 95
2018-05-06 00:00:00 9.8 12 Sudeste 17 Sudeste 0 -- -- 90
2018-05-05 23:00:00 10.7 9 Sudeste 15 Sudeste 0 -- -- 78
2018-05-05 22:00:00 11.8 9 Sudeste 21 Este 0 -- -- 71
2018-05-05 21:00:00 14.1 9 Sudeste 29 Este 0 -- -- 64
2018-05-05 20:00:00 16.1 14 Este 29 Este 0 -- -- 59
2018-05-05 19:00:00 17.7 14 Este 32 Este 0 -- -- 58
2018-05-05 18:00:00 18.5 17 Este 33 Nordeste 0 -- -- 59
2018-05-05 17:00:00 18.7 27 Este 39 Este 0 -- -- 57
2018-05-05 16:00:00 18.7 24 Este 43 Este 0 -- -- 54
2018-05-05 15:00:00 18.4 31 Este 45 Este 0 -- -- 56
2018-05-05 14:00:00 17.9 27 Este 40 Este 0 -- -- 55
2018-05-05 13:00:00 17.2 7 Este 14 Este 0 -- -- 61
2018-05-05 12:00:00 15 3 Este 11 Este 0 -- -- 65
2018-05-05 11:00:00 12.3 3 Nordeste 9 Nordeste 0 -- -- 78
2018-05-05 10:00:00 8.9 0 Calma 3 Sudeste 0 -- -- 97
2018-05-05 09:00:00 6.5 0 Calma 3 Sudoeste 0 -- -- 100
2018-05-05 08:00:00 5.9 0 Calma 4 Oeste 0 -- -- 100
2018-05-05 07:00:00 5.6 0 Calma 5 Oeste 0 -- -- 100
2018-05-05 06:00:00 6 0 Calma -- -- 0 -- -- 100
2018-05-05 05:00:00 6.2 0 Calma 4 Sudeste 0 -- -- 99
2018-05-05 04:00:00 6.6 0 Calma 2 Oeste 0 -- -- 99
2018-05-05 03:00:00 6.9 0 Calma 11 Sudeste 0 -- -- 99
2018-05-05 02:00:00 6.9 3 Este 6 Este 0 -- -- 98
2018-05-05 01:00:00 7.2 0 Calma 8 Sudeste 0 -- -- 98
2018-05-05 00:00:00 7.5 5 Este 11 Sudeste 0 -- -- 95
2018-05-04 23:00:00 7.9 8 Sudeste 20 Este 0 -- -- 93
2018-05-04 22:00:00 8.8 8 Sudeste 24 Este 0 -- -- 88
2018-05-04 21:00:00 11.4 10 Sudeste 21 Este 0 -- -- 73
2018-05-04 20:00:00 13.5 7 Sudeste 25 Este 0 -- -- 59
2018-05-04 19:00:00 14.8 13 Este 26 Este 0 -- -- 59
2018-05-04 18:00:00 15.6 15 Este 32 Nordeste 0 -- -- 52
2018-05-04 17:00:00 15.9 14 Este 37 Este 0 -- -- 55
2018-05-04 16:00:00 15.8 19 Nordeste 46 Nordeste 0 -- -- 55
2018-05-04 15:00:00 16.4 18 Nordeste 34 Este 0 -- -- 56
2018-05-04 14:00:00 15.8 18 Este 35 Este 0 -- -- 57
2018-05-04 13:00:00 15.9 9 Este 20 Sudeste 0 -- -- 59
2018-05-04 12:00:00 13.7 6 Nordeste 18 Este 0 -- -- 62
2018-05-04 11:00:00 12.2 8 Sudeste 15 Este 0 -- -- 72
2018-05-04 10:00:00 9.1 3 Norte 8 Noroeste 0 -- -- 81
2018-05-04 09:00:00 6.3 2 Sudoeste 9 Sudoeste 0 -- -- 91
2018-05-04 08:00:00 5.4 6 Sudoeste 10 Sudoeste 0 -- -- 94
2018-05-04 07:00:00 5.1 0 Calma 6 Nordeste 0 -- -- 95
2018-05-04 06:00:00 5 3 Sudoeste 6 Sudeste 0 -- -- 92
2018-05-04 05:00:00 5.3 3 Sudeste 5 Sudeste 0 -- -- 91
2018-05-04 04:00:00 6 3 Noroeste 10 Oeste 0 -- -- 86
2018-05-04 03:00:00 6 2 Norte 5 Noroeste 0 -- -- 88
2018-05-04 02:00:00 5.8 5 Noroeste 6 Noroeste 0 -- -- 91
2018-05-04 01:00:00 6.4 5 Noroeste 9 Oeste 0 -- -- 92
2018-05-04 00:00:00 6.9 9 Oeste 17 Oeste 0 -- -- 91
2018-05-03 23:00:00 7.4 11 Oeste 21 Oeste 0 -- -- 89
2018-05-03 22:00:00 7.5 17 Oeste 26 Oeste 0 -- -- 87
2018-05-03 21:00:00 8.3 15 Oeste 22 Oeste 0 -- -- 85
2018-05-03 20:00:00 10.7 13 Oeste 21 Noroeste 0 -- -- 74
2018-05-03 19:00:00 9.8 16 Noroeste 24 Noroeste 0 -- -- 75
2018-05-03 18:00:00 12.7 15 Noroeste 27 Noroeste 0 -- -- 69
2018-05-03 17:00:00 11.5 10 Noroeste 22 Oeste 0.2 -- -- 71
2018-05-03 16:00:00 11.6 12 Norte 26 Oeste 0 -- -- 76
2018-05-03 15:00:00 10.5 12 Noroeste 23 Oeste 0 -- -- 78
2018-05-03 14:00:00 10.3 17 Oeste 26 Oeste 0 -- -- 79
2018-05-03 13:00:00 8.7 10 Oeste 25 Noroeste 0.4 -- -- 94
2018-05-03 12:00:00 10.5 13 Oeste 21 Oeste 0 -- -- 75
2018-05-03 11:00:00 8.8 3 Nordeste 22 Oeste 0 -- -- 88
2018-05-03 10:00:00 8.4 6 Oeste 18 Norte 0 -- -- 97
2018-05-03 09:00:00 7.6 6 Norte 21 Oeste 0 -- -- 100
2018-05-03 08:00:00 6.6 13 Oeste 25 Oeste 0 -- -- 100
2018-05-03 07:00:00 6.4 15 Oeste 21 Oeste 0.6 -- -- 100
2018-05-03 06:00:00 6.6 11 Oeste 27 Oeste 0.4 -- -- 100
2018-05-03 05:00:00 6.8 17 Oeste 35 Norte 0.2 -- -- 100
2018-05-03 04:00:00 7.2 27 Norte 38 Norte 1.2 -- -- 100
2018-05-03 03:00:00 8.1 19 Noroeste 28 Noroeste 0.8 -- -- 100
2018-05-03 02:00:00 8.4 9 Oeste 13 Noroeste 1 -- -- 100
2018-05-03 01:00:00 8.4 13 Oeste 27 Oeste 0.8 -- -- 100
2018-05-03 00:00:00 8.9 14 Noroeste 33 Noroeste 0.6 -- -- 100
2018-05-02 23:00:00 10.1 19 Noroeste 42 Norte 1.6 -- -- 100
2018-05-02 22:00:00 10.8 17 Noroeste 28 Oeste 0.6 -- -- 100
2018-05-02 21:00:00 10.9 15 Noroeste 23 Noroeste 1 -- -- 100
2018-05-02 20:00:00 11.1 10 Noroeste 23 Noroeste 0.2 -- -- 99
2018-05-02 19:00:00 11.7 10 Noroeste 17 Noroeste 0 -- -- 97
2018-05-02 18:00:00 11.5 5 Norte 18 Oeste 0 -- -- 99
2018-05-02 17:00:00 11.2 3 Noroeste 9 Noroeste 0.4 -- -- 99
2018-05-02 16:00:00 11.2 4 Noroeste 8 Noroeste 0.8 -- -- 99
2018-05-02 15:00:00 10.8 3 Norte 7 Norte 1.2 -- -- 97
2018-05-02 14:00:00 10.5 0 Calma 6 Sudoeste 1 -- -- 97
2018-05-02 13:00:00 10.2 2 Nordeste 15 Este 0.4 -- -- 93
2018-05-02 12:00:00 9.5 11 Sudeste 21 Sudeste 0.2 -- -- 88
2018-05-02 11:00:00 10.5 4 Sudeste 13 Sur 0 -- -- 81
2018-05-02 10:00:00 9.9 6 Sudeste 15 Sudeste 0 -- -- 81
2018-05-02 09:00:00 8.6 2 Sudeste 8 Este 0 -- -- 85
2018-05-02 08:00:00 7.7 2 Sudoeste 5 Oeste 0 -- -- 89
2018-05-02 07:00:00 7.3 2 Oeste 10 Sudoeste 0 -- -- 91
2018-05-02 06:00:00 6.9 5 Sudoeste 10 Sudeste 0 -- -- 94
2018-05-02 05:00:00 7.4 4 Sudeste 11 Sudoeste 0 -- -- 90
2018-05-02 04:00:00 6.9 6 Oeste 9 Sudoeste 0 -- -- 91
2018-05-02 03:00:00 7.2 0 Calma 8 Oeste 0 -- -- 89
2018-05-02 02:00:00 6.8 6 Oeste 7 Oeste 0 -- -- 91
2018-05-02 01:00:00 6.9 2 Sur 7 Sudeste 0 -- -- 89
2018-05-02 00:00:00 7.1 0 Calma 4 Este 0 -- -- 86
2018-05-01 23:00:00 7.2 0 Calma 14 Sudeste 0 -- -- 86
2018-05-01 22:00:00 7.5 12 Sudeste 29 Sudeste 0 -- -- 85
2018-05-01 21:00:00 8.7 16 Este 26 Este 0 -- -- 82
2018-05-01 20:00:00 10.4 6 Este 19 Este 0 -- -- 78
2018-05-01 19:00:00 11.8 4 Oeste 11 Este 0 -- -- 74
2018-05-01 18:00:00 11.6 7 Este 24 Sudeste 0 -- -- 74
2018-05-01 17:00:00 12.1 9 Este 17 Este 0 -- -- 72
2018-05-01 16:00:00 12.3 9 Nordeste 21 Este 0 -- -- 69
2018-05-01 15:00:00 14.1 10 Oeste 22 Oeste 0 -- -- 63
2018-05-01 14:00:00 13 7 Noroeste 20 Noroeste 0 -- -- 65
2018-05-01 13:00:00 12.6 5 Noroeste 12 Noroeste 0 -- -- 56
2018-05-01 12:00:00 11 5 Este 12 Nordeste 0 -- -- 61
2018-05-01 11:00:00 9.4 3 Sudoeste 6 Nordeste 0 -- -- 76
2018-05-01 10:00:00 7.1 3 Nordeste 5 Nordeste 0 -- -- 97
2018-05-01 09:00:00 4.1 0 Calma 8 Nordeste 0 -- -- 99
2018-05-01 08:00:00 3.3 7 Nordeste 10 Nordeste 0 -- -- 99
2018-05-01 07:00:00 3.1 3 Sudoeste 5 Este 0 -- -- 97
2018-05-01 06:00:00 3.8 3 Oeste 9 Noroeste 0 -- -- 95
2018-05-01 05:00:00 4.1 0 Calma 7 Nordeste 0 -- -- 97
2018-05-01 04:00:00 4.2 4 Oeste 9 Nordeste 0 -- -- 99
2018-05-01 03:00:00 4.2 6 Nordeste 32 Oeste 0.6 -- -- 100
2018-05-01 02:00:00 3.8 6 Oeste 9 Oeste 0 -- -- 100
2018-05-01 01:00:00 4.1 0 Calma 5 Oeste 0 -- -- 100
2018-05-01 00:00:00 4.2 3 Norte 10 Este 0 -- -- 100
2018-04-30 23:00:00 4.6 8 Sudeste 27 Norte 2.4 -- -- 100
2018-04-30 22:00:00 4.6 4 Nordeste 8 Nordeste 0 -- -- 99
2018-04-30 21:00:00 5 5 Nordeste 26 Sudoeste 0.8 -- -- 99
2018-04-30 20:00:00 4.9 18 Noroeste 36 Norte 1.6 -- -- 96
2018-04-30 19:00:00 5.7 10 Noroeste 29 Oeste 0 -- -- 94
2018-04-30 18:00:00 6 14 Noroeste 30 Oeste 0.8 -- -- 96
2018-04-30 17:00:00 7 17 Norte 36 Noroeste 0.4 -- -- 95
2018-04-30 16:00:00 9.1 11 Oeste 24 Oeste 0 -- -- 87
2018-04-30 15:00:00 7.5 9 Noroeste 25 Norte 1.6 -- -- 97
2018-04-30 14:00:00 6.3 5 Norte 12 Nordeste 0.8 -- -- 98
2018-04-30 13:00:00 5.5 5 Este 28 Oeste 0.4 -- -- 99
2018-04-30 12:00:00 4.8 17 Noroeste 31 Noroeste 1.2 -- -- 99
2018-04-30 11:00:00 5.1 5 Noroeste 14 Noroeste 1.2 -- -- 100
2018-04-30 10:00:00 4.9 2 Oeste 8 Noroeste 0.2 -- -- 100
2018-04-30 09:00:00 4.5 5 Norte 12 Noroeste 1 -- -- 100
2018-04-30 08:00:00 4.3 7 Norte 18 Norte 1.8 -- -- 100
2018-04-30 07:00:00 4.4 11 Noroeste 21 Noroeste 0.6 -- -- 100
2018-04-30 06:00:00 4.4 13 Noroeste 23 Noroeste 0.2 -- -- 100
2018-04-30 05:00:00 4.8 13 Noroeste 30 Noroeste 0 -- -- 100
2018-04-30 04:00:00 5.3 17 Noroeste 29 Noroeste 0.2 -- -- 99
2018-04-30 03:00:00 5.5 11 Noroeste 20 Noroeste 0 -- -- 98
2018-04-30 02:00:00 5.7 16 Noroeste 22 Noroeste 0.2 -- -- 97
2018-04-30 01:00:00 5.5 5 Noroeste 13 Noroeste 0 -- -- 99
2018-04-30 00:00:00 5.4 6 Noroeste 18 Noroeste 0.4 -- -- 100
2018-04-29 23:00:00 5.5 12 Noroeste 18 Noroeste 1 -- -- 99
2018-04-29 22:00:00 5.1 4 Nordeste 8 Nordeste 0 -- -- 100
2018-04-29 21:00:00 5.1 4 Sudeste 12 Noroeste 0.4 -- -- 100
2018-04-29 20:00:00 5.1 10 Noroeste 15 Noroeste 3.6 -- -- 100
2018-04-29 19:00:00 5.7 5 Norte 19 Noroeste 3.2 -- -- 100
2018-04-29 18:00:00 5.6 16 Noroeste 45 Oeste 5.4 -- -- 96
2018-04-29 17:00:00 8.5 14 Oeste 26 Norte 1 -- -- 93
2018-04-29 16:00:00 11.8 13 Noroeste 29 Noroeste 0 -- -- 77
2018-04-29 15:00:00 12.1 16 Noroeste 33 Oeste 0 -- -- 70
2018-04-29 14:00:00 11.9 23 Oeste 33 Oeste 0 -- -- 70
2018-04-29 13:00:00 12 17 Noroeste 28 Oeste 0 -- -- 77
2018-04-29 12:00:00 10.7 13 Noroeste 20 Noroeste 0 -- -- 84
2018-04-29 11:00:00 8.9 4 Oeste 10 Noroeste 0 -- -- 100
2018-04-29 10:00:00 6.3 0 Calma 6 Sudoeste 0 -- -- 100
2018-04-29 09:00:00 5.2 4 Sudoeste 7 Sudoeste 0 -- -- 100
2018-04-29 08:00:00 4.8 0 Calma 4 Este 0 -- -- 100
2018-04-29 07:00:00 4.7 0 Calma 3 Oeste 0 -- -- 100
2018-04-29 06:00:00 4.8 0 Calma 6 Este 0 -- -- 100
2018-04-29 05:00:00 4.9 0 Calma 3 Norte 0 -- -- 100
2018-04-29 04:00:00 5 2 Noroeste 3 Oeste 0 -- -- 100
2018-04-29 03:00:00 5.4 0 Calma 3 Norte 0 -- -- 100
2018-04-29 02:00:00 5.5 0 Calma 7 Este 0.2 -- -- 100
2018-04-29 01:00:00 5.8 7 Este 11 Oeste 0 -- -- 100
2018-04-29 00:00:00 6.1 8 Oeste 17 Oeste 0.4 -- -- 100
2018-04-28 23:00:00 6.2 10 Oeste 15 Oeste 0.2 -- -- 100
2018-04-28 22:00:00 6.7 6 Oeste 8 Oeste 0.4 -- -- 100
2018-04-28 21:00:00 7 4 Norte 7 Norte 1.2 -- -- 100
2018-04-28 20:00:00 7.6 2 Oeste 4 Sudoeste 1 -- -- 100
2018-04-28 19:00:00 7.7 3 Oeste 8 Noroeste 1 -- -- 100
2018-04-28 18:00:00 7.4 5 Oeste 9 Sudoeste 2.6 -- -- 100
2018-04-28 17:00:00 7.7 5 Oeste 11 Oeste 3 -- -- 100
2018-04-28 16:00:00 7.9 7 Oeste 9 Oeste 2.2 -- -- 99
2018-04-28 15:00:00 7.8 6 Sur 12 Sudeste 0.2 -- -- 97
2018-04-28 14:00:00 8.1 4 Sur 14 Este 0 -- -- 98
2018-04-28 13:00:00 7.9 5 Sudeste 13 Este 0 -- -- 99
2018-04-28 12:00:00 7.7 5 Este 12 Este 0.4 -- -- 100
2018-04-28 11:00:00 7 2 Oeste 8 Este 0 -- -- 99
2018-04-28 10:00:00 6.5 3 Sur 7 Este 0.2 -- -- 99
2018-04-28 09:00:00 6.3 0 Calma 4 Sudoeste 0 -- -- 100
2018-04-28 08:00:00 6.2 0 Calma 5 Este 0.8 -- -- 100
2018-04-28 07:00:00 6.2 0 Calma 10 Sudeste 0 -- -- 100
2018-04-28 06:00:00 6.1 4 Sudeste 6 Este 0 -- -- 100
2018-04-28 05:00:00 6.1 5 Sur 7 Sudeste 0 -- -- 100
2018-04-28 04:00:00 6.2 3 Este 5 Sudeste 0 -- -- 100
2018-04-28 03:00:00 6.2 0 Calma 6 Sudoeste 0 -- -- 100
2018-04-28 02:00:00 6.2 0 Calma 5 Este 0 -- -- 100
2018-04-28 01:00:00 6.4 5 Este 8 Oeste 0 -- -- 100
2018-04-28 00:00:00 6.3 6 Oeste 10 Oeste 0 -- -- 100